Time;durP1;ratioP1;P1;durP2;ratioP2;P2;SDS_P1;SDS_P2;PMS_P1;PMS_P2;Temp;Humidity;BMP_temperature;BMP_pressure;BME280_temperature;BME280_humidity;BME280_pressure;Samples;Min_cycle;Max_cycle;Signal;HPM_P1;HPM_P2
2023/03/16 00:02:06;;;;;;;;;;;;;;;4.02;89.78;92431.63;5049190;28;20031;-38
2023/03/16 00:04:36;;;;;;;;;;;;;;;3.73;90.78;92428.03;5049237;28;19958;-38
2023/03/16 00:07:01;;;;;;;;;;;;;;;3.46;93.25;92435.56;5049194;28;20032;-39
2023/03/16 00:09:29;;;;;;;;;;;;;;;3.45;93.35;92430.63;5049265;28;20448;-39
2023/03/16 00:11:56;;;;;;;;;;;;;;;3.63;92.81;92440.69;5048824;28;19940;-38
2023/03/16 00:14:21;;;;;;;;;;;;;;;3.64;91.76;92440.16;5042596;28;19935;-38
2023/03/16 00:16:47;;;;;;;;;;;;;;;3.88;89.98;92444.59;5029267;28;20393;-39
2023/03/16 00:19:12;;;;;;;;;;;;;;;3.89;89.15;92445.34;5028927;28;20314;-39
2023/03/16 00:21:37;;;;;;;;;;;;;;;3.65;89.80;92457.25;5029264;28;20028;-39
2023/03/16 00:24:02;;;;;;;;;;;;;;;3.26;92.01;92457.31;5029158;28;19995;-39
2023/03/16 00:26:28;;;;;;;;;;;;;;;3.13;93.47;92465.50;5028821;28;20048;-39
2023/03/16 00:28:53;;;;;;;;;;;;;;;3.51;91.81;92455.84;5029159;28;19971;-39
2023/03/16 00:31:18;;;;;;;;;;;;;;;3.58;90.47;92463.34;5028782;28;20044;-39
2023/03/16 00:33:44;;;;;;;;;;;;;;;3.45;90.51;92461.38;5040951;28;19983;-39
2023/03/16 00:36:10;;;;;;;;;;;;;;;3.44;90.92;92465.38;5052455;28;19937;-39
2023/03/16 00:38:36;;;;;;;;;;;;;;;3.56;89.72;92468.59;5052540;28;19936;-39
2023/03/16 00:41:02;;;;;;;;;;;;;;;3.33;89.83;92473.78;5052324;28;19953;-39
2023/03/16 00:43:28;;;;;;;;;;;;;;;3.04;91.86;92467.38;5052273;28;20427;-39
2023/03/16 00:45:58;;;;;;;;;;;;;;;2.90;92.22;92476.09;5052306;28;20019;-39
2023/03/16 00:48:23;;;;;;;;;;;;;;;2.93;93.95;92469.56;5048689;28;19933;-39
2023/03/16 00:50:48;;;;;;;;;;;;;;;2.88;94.54;92470.41;5032504;28;19935;-39
2023/03/16 00:53:14;;;;;;;;;;;;;;;2.82;93.91;92472.50;5032166;28;19931;-38
2023/03/16 00:55:40;;;;;;;;;;;;;;;2.67;94.61;92473.00;5034638;28;19941;-38
2023/03/16 00:58:05;;;;;;;;;;;;;;;2.83;94.34;92466.53;5051895;28;20487;-39
2023/03/16 01:00:31;;;;;;;;;;;;;;;2.47;95.77;92476.31;5052199;28;20409;-39
2023/03/16 01:02:56;;;;;;;;;;;;;;;2.48;96.12;92471.59;5051864;28;20318;-38
2023/03/16 01:05:21;;;;;;;;;;;;;;;2.48;94.25;92475.06;5052263;28;19942;-38
2023/03/16 01:07:47;;;;;;;;;;;;;;;2.41;96.05;92475.66;5036047;28;19935;-39
2023/03/16 01:10:12;;;;;;;;;;;;;;;2.30;96.25;92468.41;5047185;28;20048;-39
2023/03/16 01:12:37;;;;;;;;;;;;;;;2.28;96.63;92470.16;5031674;28;19936;-39
2023/03/16 01:15:03;;;;;;;;;;;;;;;2.37;95.38;92479.94;5032056;28;19988;-38
2023/03/16 01:17:28;;;;;;;;;;;;;;;2.33;96.13;92482.22;5031696;28;19934;-39
2023/03/16 01:19:53;;;;;;;;;;;;;;;2.10;97.03;92479.84;5031834;28;19957;-38
2023/03/16 01:22:19;;;;;;;;;;;;;;;2.18;97.38;92499.06;5031899;28;19939;-39
2023/03/16 01:24:44;;;;;;;;;;;;;;;2.05;97.13;92499.00;5031488;28;19931;-38
2023/03/16 01:27:10;;;;;;;;;;;;;;;1.90;98.20;92493.28;5031706;28;19929;-38
2023/03/16 01:29:35;;;;;;;;;;;;;;;1.85;99.33;92500.25;5031751;28;19933;-39
2023/03/16 01:32:01;;;;;;;;;;;;;;;1.86;99.69;92495.56;5031128;28;19937;-39
2023/03/16 01:34:26;;;;;;;;;;;;;;;2.00;99.32;92502.53;5045815;28;19934;-39
2023/03/16 01:36:51;;;;;;;;;;;;;;;2.02;99.33;92505.47;5066992;28;19940;-39
2023/03/16 01:39:17;;;;;;;;;;;;;;;1.90;98.90;92504.91;5051125;28;20338;-39
2023/03/16 01:41:42;;;;;;;;;;;;;;;2.21;97.94;92514.34;5051213;28;19941;-39
2023/03/16 01:44:11;;;;;;;;;;;;;;;2.06;96.63;92514.06;5051029;28;19931;-39
2023/03/16 01:46:37;;;;;;;;;;;;;;;2.01;96.38;92523.81;5051336;28;19939;-39
2023/03/16 01:49:05;;;;;;;;;;;;;;;1.98;96.97;92522.09;5041934;28;20391;-39
2023/03/16 01:51:41;;;;;;;;;;;;;;;2.14;95.27;92521.13;5031216;28;19994;-39
2023/03/16 01:54:07;;;;;;;;;;;;;;;2.17;95.02;92522.06;5031055;28;20454;-39
2023/03/16 01:56:33;;;;;;;;;;;;;;;2.02;95.25;92532.69;5040345;28;19991;-39
2023/03/16 01:58:59;;;;;;;;;;;;;;;1.99;96.34;92534.44;5050834;28;19937;-39
2023/03/16 02:01:27;;;;;;;;;;;;;;;1.95;95.19;92530.56;5050774;28;19931;-39
2023/03/16 02:03:56;;;;;;;;;;;;;;;1.86;95.65;92539.84;5066220;28;19933;-38
2023/03/16 02:06:22;;;;;;;;;;;;;;;1.87;95.71;92537.84;5061877;28;20425;-39
2023/03/16 02:08:47;;;;;;;;;;;;;;;1.98;95.59;92538.44;5031035;28;19934;-39
2023/03/16 02:11:16;;;;;;;;;;;;;;;2.02;95.55;92535.41;5030903;28;20041;-39
2023/03/16 02:13:42;;;;;;;;;;;;;;;1.75;96.55;92541.97;5046057;28;20032;-39
2023/03/16 02:16:07;;;;;;;;;;;;;;;1.86;95.38;92536.38;5031083;28;19931;-39
2023/03/16 02:18:33;;;;;;;;;;;;;;;1.75;95.36;92544.69;5030627;28;19935;-39
2023/03/16 02:21:10;;;;;;;;;;;;;;;1.79;96.18;92543.16;5030684;28;19954;-39
2023/03/16 02:23:35;;;;;;;;;;;;;;;1.83;95.45;92546.31;5030610;28;19934;-39
2023/03/16 02:26:21;;;;;;;;;;;;;;;1.74;94.23;92543.19;5030616;28;19931;-39
2023/03/16 02:29:05;;;;;;;;;;;;;;;1.78;94.04;92549.81;5042408;28;19935;-39
2023/03/16 02:31:30;;;;;;;;;;;;;;;1.73;93.72;92550.66;5017494;28;19935;-39
2023/03/16 02:33:56;;;;;;;;;;;;;;;1.59;93.79;92557.22;5056035;28;19957;-39
2023/03/16 02:36:21;;;;;;;;;;;;;;;1.64;94.81;92555.69;5066074;28;20211;-39
2023/03/16 02:38:46;;;;;;;;;;;;;;;1.72;93.16;92570.19;5065758;28;20331;-39
2023/03/16 02:41:16;;;;;;;;;;;;;;;1.54;94.71;92569.66;5050419;28;19967;-39
2023/03/16 02:44:01;;;;;;;;;;;;;;;1.73;94.80;92560.78;5050018;28;19938;-39
2023/03/16 02:46:27;;;;;;;;;;;;;;;1.83;92.35;92564.63;5049575;28;19983;-39
2023/03/16 02:48:58;;;;;;;;;;;;;;;1.79;91.58;92561.44;5042354;28;20012;-39
2023/03/16 02:51:24;;;;;;;;;;;;;;;1.80;91.48;92566.38;5030257;28;19936;-39
2023/03/16 02:53:49;;;;;;;;;;;;;;;1.83;91.77;92567.34;5029919;28;19938;-39
2023/03/16 02:56:14;;;;;;;;;;;;;;;1.96;91.65;92568.16;5036423;28;19968;-39
2023/03/16 02:58:39;;;;;;;;;;;;;;;2.07;90.19;92578.91;5049718;28;19931;-39
2023/03/16 03:01:05;;;;;;;;;;;;;;;2.00;89.20;92573.31;5049925;28;20047;-39
2023/03/16 03:03:33;;;;;;;;;;;;;;;1.85;90.41;92573.00;5040055;28;19941;-39
2023/03/16 03:05:58;;;;;;;;;;;;;;;1.74;89.14;92578.56;5030185;28;20014;-39
2023/03/16 03:08:23;;;;;;;;;;;;;;;1.71;91.55;92585.06;5030352;28;19935;-39
2023/03/16 03:10:49;;;;;;;;;;;;;;;1.63;91.23;92589.59;5030325;28;20027;-39
2023/03/16 03:13:14;;;;;;;;;;;;;;;1.73;91.34;92593.44;5030537;28;19940;-39
2023/03/16 03:15:39;;;;;;;;;;;;;;;1.53;91.81;92598.13;5030505;28;20396;-39
2023/03/16 03:18:05;;;;;;;;;;;;;;;1.59;93.13;92598.03;5030546;28;19929;-39
2023/03/16 03:20:30;;;;;;;;;;;;;;;1.32;92.86;92599.78;5030346;28;20051;-39
2023/03/16 03:22:56;;;;;;;;;;;;;;;1.36;93.56;92600.28;5030183;28;20560;-39
2023/03/16 03:25:21;;;;;;;;;;;;;;;1.26;94.83;92585.53;5030088;28;19964;-39
2023/03/16 03:27:47;;;;;;;;;;;;;;;1.22;95.47;92595.94;5030315;28;19940;-39
2023/03/16 03:30:14;;;;;;;;;;;;;;;1.36;95.89;92602.25;5030395;28;20022;-39
2023/03/16 03:32:39;;;;;;;;;;;;;;;1.19;95.84;92599.69;5029918;28;19935;-39
2023/03/16 03:35:05;;;;;;;;;;;;;;;1.37;94.36;92601.00;5049689;28;19938;-39
2023/03/16 03:37:30;;;;;;;;;;;;;;;1.28;95.13;92607.50;5050188;28;20014;-39
2023/03/16 03:39:56;;;;;;;;;;;;;;;1.29;93.77;92619.88;5049715;28;20618;-39
2023/03/16 03:42:22;;;;;;;;;;;;;;;1.10;93.92;92616.34;5050150;28;19942;-39
2023/03/16 03:44:48;;;;;;;;;;;;;;;1.21;95.38;92615.50;5049599;28;20055;-39
2023/03/16 03:47:13;;;;;;;;;;;;;;;1.05;95.63;92625.28;5049893;28;20033;-39
2023/03/16 03:49:39;;;;;;;;;;;;;;;1.09;95.44;92616.84;5036030;28;20031;-39
2023/03/16 03:52:04;;;;;;;;;;;;;;;0.96;95.60;92622.88;5030264;28;20358;-39
2023/03/16 03:54:29;;;;;;;;;;;;;;;1.04;96.26;92621.06;5029881;28;19949;-39
2023/03/16 03:56:55;;;;;;;;;;;;;;;1.13;96.06;92628.91;5042411;28;20452;-39
2023/03/16 03:59:21;;;;;;;;;;;;;;;1.37;94.90;92630.91;5043687;28;19921;-39
2023/03/16 04:01:47;;;;;;;;;;;;;;;1.28;92.88;92631.97;5029932;28;19971;-39
2023/03/16 04:04:13;;;;;;;;;;;;;;;0.98;94.48;92627.78;5030157;28;19925;-39
2023/03/16 04:06:38;;;;;;;;;;;;;;;1.10;95.22;92632.66;5029855;28;19920;-39
2023/03/16 04:09:04;;;;;;;;;;;;;;;1.07;95.47;92638.34;5033108;28;20563;-38
2023/03/16 04:11:29;;;;;;;;;;;;;;;0.96;95.71;92643.88;5033535;28;19933;-38
2023/03/16 04:13:54;;;;;;;;;;;;;;;1.13;96.05;92652.63;5033340;28;20308;-38
2023/03/16 04:16:20;;;;;;;;;;;;;;;1.17;95.71;92653.81;5032980;28;20382;-38
2023/03/16 04:18:46;;;;;;;;;;;;;;;1.07;94.70;92638.34;5032919;28;19917;-38
2023/03/16 04:21:13;;;;;;;;;;;;;;;0.98;94.40;92652.25;5032873;28;19987;-38
2023/03/16 04:23:38;;;;;;;;;;;;;;;1.01;95.53;92660.16;5048577;28;19967;-38
2023/03/16 04:26:04;;;;;;;;;;;;;;;1.01;94.92;92662.88;5032672;28;20347;-38
2023/03/16 04:28:31;;;;;;;;;;;;;;;1.05;95.51;92663.31;5033011;28;20383;-38
2023/03/16 04:31:00;;;;;;;;;;;;;;;1.14;93.71;92665.72;5032587;28;20068;-38
2023/03/16 04:33:25;;;;;;;;;;;;;;;0.99;94.58;92676.22;5038603;28;20466;-38
2023/03/16 04:35:53;;;;;;;;;;;;;;;0.91;95.71;92667.13;5068210;28;19991;-38
2023/03/16 04:38:19;;;;;;;;;;;;;;;0.97;95.44;92667.84;5052470;28;19912;-38
2023/03/16 04:40:44;;;;;;;;;;;;;;;0.99;94.49;92678.19;5052476;28;19917;-38
2023/03/16 04:43:09;;;;;;;;;;;;;;;0.86;95.49;92678.78;5052330;28;19912;-38
2023/03/16 04:45:35;;;;;;;;;;;;;;;0.96;95.10;92679.19;5052233;28;20007;-38
2023/03/16 04:48:00;;;;;;;;;;;;;;;0.91;93.92;92686.16;5051766;28;20015;-38
2023/03/16 04:50:25;;;;;;;;;;;;;;;0.93;94.82;92691.09;5032496;28;19920;-38
2023/03/16 04:52:50;;;;;;;;;;;;;;;1.04;95.98;92685.59;5032181;28;19923;-38
2023/03/16 04:55:16;;;;;;;;;;;;;;;1.35;95.05;92685.06;5032215;28;19917;-38
2023/03/16 04:57:41;;;;;;;;;;;;;;;1.35;92.28;92683.09;5030699;28;19975;-38
2023/03/16 05:00:12;;;;;;;;;;;;;;;1.22;92.09;92693.84;5031986;28;19921;-38
2023/03/16 05:02:38;;;;;;;;;;;;;;;1.15;93.19;92691.66;5032043;28;20393;-38
2023/03/16 05:05:04;;;;;;;;;;;;;;;1.05;92.52;92695.94;5032047;28;19920;-38
2023/03/16 05:07:30;;;;;;;;;;;;;;;0.96;94.07;92698.97;5031963;28;19913;-38
2023/03/16 05:09:55;;;;;;;;;;;;;;;1.16;94.72;92700.56;5032208;28;20371;-38
2023/03/16 05:12:20;;;;;;;;;;;;;;;1.08;92.67;92696.91;5032183;28;19920;-38
2023/03/16 05:14:45;;;;;;;;;;;;;;;1.04;92.69;92704.63;5031622;28;19920;-38
2023/03/16 05:17:13;;;;;;;;;;;;;;;1.07;93.60;92709.75;5032126;28;19952;-38
2023/03/16 05:19:39;;;;;;;;;;;;;;;0.97;94.10;92719.47;5031194;28;20489;-38
2023/03/16 05:22:05;;;;;;;;;;;;;;;1.06;93.96;92710.28;5031676;28;20007;-38
2023/03/16 05:24:30;;;;;;;;;;;;;;;1.20;92.65;92712.63;5031877;28;20032;-38
2023/03/16 05:26:56;;;;;;;;;;;;;;;0.99;91.73;92717.00;5031456;28;20337;-38
2023/03/16 05:29:21;;;;;;;;;;;;;;;1.07;94.15;92726.06;5031611;28;19971;-38
2023/03/16 05:31:46;;;;;;;;;;;;;;;0.92;93.98;92722.22;5031411;28;19921;-38
2023/03/16 05:34:12;;;;;;;;;;;;;;;0.93;93.99;92731.88;5044280;28;19917;-38
2023/03/16 05:36:37;;;;;;;;;;;;;;;1.02;94.35;92721.41;5051524;28;20638;-38
2023/03/16 05:39:03;;;;;;;;;;;;;;;1.14;93.84;92727.50;5051579;28;19966;-38
2023/03/16 05:41:28;;;;;;;;;;;;;;;1.03;93.33;92720.19;5051575;28;19917;-38
2023/03/16 05:43:54;;;;;;;;;;;;;;;1.02;93.91;92712.53;5051363;28;19921;-38
2023/03/16 05:46:19;;;;;;;;;;;;;;;1.05;93.68;92717.69;5051536;28;19966;-38
2023/03/16 05:48:45;;;;;;;;;;;;;;;1.08;94.07;92733.00;5044480;28;19999;-38
2023/03/16 05:51:10;;;;;;;;;;;;;;;1.06;92.90;92729.31;5031574;28;19913;-38
2023/03/16 05:53:35;;;;;;;;;;;;;;;1.06;93.48;92724.59;5031369;28;20305;-38
2023/03/16 05:56:01;;;;;;;;;;;;;;;1.05;92.89;92731.28;5035973;28;19999;-39
2023/03/16 05:58:26;;;;;;;;;;;;;;;1.21;91.99;92735.13;5050948;28;20385;-38
2023/03/16 06:00:54;;;;;;;;;;;;;;;1.05;92.49;92736.72;5051075;28;19920;-38
2023/03/16 06:03:19;;;;;;;;;;;;;;;1.12;92.99;92735.44;5050936;28;20423;-38
2023/03/16 06:05:45;;;;;;;;;;;;;;;1.24;92.40;92744.97;5050879;28;19959;-38
2023/03/16 06:08:10;;;;;;;;;;;;;;;1.09;91.68;92739.91;5046989;28;19921;-38
2023/03/16 06:10:35;;;;;;;;;;;;;;;1.26;91.53;92748.66;5030713;28;19986;-38
2023/03/16 06:13:01;;;;;;;;;;;;;;;1.14;90.04;92751.97;5030992;28;19919;-38
2023/03/16 06:15:29;;;;;;;;;;;;;;;1.24;91.49;92756.59;5030640;28;20382;-38
2023/03/16 06:17:54;;;;;;;;;;;;;;;1.20;92.35;92761.56;5030960;28;20095;-38
2023/03/16 06:20:19;;;;;;;;;;;;;;;1.26;91.57;92764.25;5030840;28;20000;-38
2023/03/16 06:22:45;;;;;;;;;;;;;;;1.34;92.33;92771.34;5030794;28;20437;-38
2023/03/16 06:25:11;;;;;;;;;;;;;;;1.49;92.00;92769.00;5030534;28;19976;-38
2023/03/16 06:27:38;;;;;;;;;;;;;;;1.54;90.17;92765.50;5030566;28;19913;-38
2023/03/16 06:30:05;;;;;;;;;;;;;;;1.66;90.70;92765.41;5029734;28;19917;-38
2023/03/16 06:32:31;;;;;;;;;;;;;;;1.61;89.69;92768.91;5029955;28;19913;-38
2023/03/16 06:34:58;;;;;;;;;;;;;;;1.78;89.83;92777.66;5048810;28;19974;-38
2023/03/16 06:59:27;;;;;;;;;;;;;;;1.69;92.66;92824.28;5009263;28;19924;-38
2023/03/16 07:01:53;;;;;;;;;;;;;;;1.53;91.04;92815.72;5028915;28;19916;-38
2023/03/16 07:04:18;;;;;;;;;;;;;;;1.63;92.48;92818.13;5028853;28;20322;-38
2023/03/16 07:06:43;;;;;;;;;;;;;;;1.64;90.87;92825.78;5028743;28;19917;-38
2023/03/16 07:09:08;;;;;;;;;;;;;;;1.52;91.34;92819.69;5029145;28;19961;-38
2023/03/16 07:11:34;;;;;;;;;;;;;;;1.65;90.15;92829.97;5029047;28;19917;-38
2023/03/16 07:13:59;;;;;;;;;;;;;;;1.78;89.96;92835.56;5028742;28;19917;-38
2023/03/16 07:16:25;;;;;;;;;;;;;;;1.79;90.00;92834.34;5028820;28;19940;-38
2023/03/16 07:18:51;;;;;;;;;;;;;;;1.95;90.40;92841.59;5028944;28;20328;-38
2023/03/16 07:21:16;;;;;;;;;;;;;;;1.99;88.77;92844.06;5028584;28;19919;-38
2023/03/16 07:23:41;;;;;;;;;;;;;;;1.83;89.77;92842.97;5028948;28;19921;-38
2023/03/16 07:26:07;;;;;;;;;;;;;;;1.97;88.08;92854.72;5028653;28;20392;-38
2023/03/16 07:28:33;;;;;;;;;;;;;;;1.70;89.18;92853.69;5028674;28;20011;-38
2023/03/16 07:30:58;;;;;;;;;;;;;;;1.74;89.66;92856.13;5028244;28;19999;-38
2023/03/16 07:39:29;;;;;;;;;;;;;;;1.57;91.49;92864.41;5048223;28;19963;-38
2023/03/16 07:41:54;;;;;;;;;;;;;;;1.52;91.54;92859.75;5048298;28;19959;-38
2023/03/16 07:44:20;;;;;;;;;;;;;;;1.66;92.04;92871.53;5048583;28;20401;-38
2023/03/16 07:46:45;;;;;;;;;;;;;;;1.75;92.18;92871.97;5048398;28;19913;-38
2023/03/16 07:49:11;;;;;;;;;;;;;;;1.97;92.02;92879.94;5033052;28;19963;-38
2023/03/16 07:51:36;;;;;;;;;;;;;;;1.90;89.50;92875.06;5028481;28;20374;-38
2023/03/16 07:54:03;;;;;;;;;;;;;;;2.12;89.90;92879.59;5028617;28;19917;-38
2023/03/16 07:56:28;;;;;;;;;;;;;;;1.90;88.49;92882.50;5036738;28;19967;-38
2023/03/16 07:58:53;;;;;;;;;;;;;;;1.77;87.45;92876.91;5028263;28;19917;-38
2023/03/16 08:01:19;;;;;;;;;;;;;;;1.97;87.42;92885.38;4961483;28;1914084;-38
2023/03/16 08:03:44;;;;;;;;;;;;;;;2.11;86.61;92884.31;5028996;28;19952;-38
2023/03/16 08:06:10;;;;;;;;;;;;;;;2.16;87.58;92885.50;5029171;28;19921;-38
2023/03/16 08:08:36;;;;;;;;;;;;;;;2.07;88.45;92897.47;5028816;28;20432;-38
2023/03/16 08:11:01;;;;;;;;;;;;;;;2.07;88.10;92894.72;5029537;28;20008;-38
2023/03/16 08:13:27;;;;;;;;;;;;;;;2.44;86.10;92898.88;5029075;28;19921;-38
2023/03/16 08:15:57;;;;;;;;;;;;;;;2.03;86.40;92907.88;5028870;28;19917;-38
2023/03/16 08:18:25;;;;;;;;;;;;;;;2.07;87.63;92902.16;5028788;28;19924;-38
2023/03/16 08:20:51;;;;;;;;;;;;;;;2.16;87.38;92910.75;5029006;28;20004;-38
2023/03/16 08:23:16;;;;;;;;;;;;;;;2.06;86.65;92917.00;5029109;28;20004;-38
2023/03/16 08:25:41;;;;;;;;;;;;;;;2.23;86.35;92917.63;5028897;28;19921;-38
2023/03/16 08:28:07;;;;;;;;;;;;;;;2.14;87.35;92907.06;5028630;28;19913;-38
2023/03/16 08:30:34;;;;;;;;;;;;;;;1.69;88.86;92917.50;5029279;28;20345;-38
2023/03/16 08:33:00;;;;;;;;;;;;;;;2.03;88.88;92920.75;5031028;28;19913;-38
2023/03/16 08:35:27;;;;;;;;;;;;;;;2.16;88.49;92918.94;5048933;28;19950;-38
2023/03/16 08:37:53;;;;;;;;;;;;;;;2.30;86.67;92920.53;5048751;28;20379;-38
2023/03/16 08:40:21;;;;;;;;;;;;;;;2.26;87.79;92922.78;5048565;28;19925;-38
2023/03/16 08:42:48;;;;;;;;;;;;;;;2.49;85.33;92923.31;5048479;28;19936;-38
2023/03/16 08:45:14;;;;;;;;;;;;;;;2.39;86.38;92924.91;5034976;28;19920;-38
2023/03/16 08:47:39;;;;;;;;;;;;;;;2.24;87.23;92924.53;5028481;28;19921;-38
2023/03/16 08:50:05;;;;;;;;;;;;;;;2.40;87.83;92931.84;5028613;28;20054;-38
2023/03/16 08:52:31;;;;;;;;;;;;;;;2.57;87.31;92934.41;5028458;28;20302;-38
2023/03/16 08:54:56;;;;;;;;;;;;;;;2.45;87.98;92925.59;5037343;28;19992;-38
2023/03/16 08:57:22;;;;;;;;;;;;;;;2.65;86.67;92933.34;5035556;28;20058;-38
2023/03/16 08:59:47;;;;;;;;;;;;;;;2.86;86.41;92928.91;5031945;28;19925;-38
2023/03/16 09:02:13;;;;;;;;;;;;;;;2.94;86.05;92926.38;5032291;28;19944;-38
2023/03/16 09:04:39;;;;;;;;;;;;;;;3.01;85.01;92937.44;5032015;28;19983;-38
2023/03/16 09:07:04;;;;;;;;;;;;;;;3.09;86.53;92934.88;5032197;28;19963;-38
2023/03/16 09:09:30;;;;;;;;;;;;;;;3.34;86.24;92928.13;5031898;28;19924;-38
2023/03/16 09:11:55;;;;;;;;;;;;;;;3.37;85.49;92931.81;5032174;28;20316;-38
2023/03/16 09:14:22;;;;;;;;;;;;;;;3.57;84.70;92936.78;5032089;28;19920;-38
2023/03/16 09:16:47;;;;;;;;;;;;;;;3.60;83.36;92933.00;5031834;28;20235;-38
2023/03/16 09:19:12;;;;;;;;;;;;;;;3.38;83.47;92936.03;5032072;28;19913;-38
2023/03/16 09:21:38;;;;;;;;;;;;;;;3.43;84.22;92944.13;5031844;28;19940;-38
2023/03/16 09:24:03;;;;;;;;;;;;;;;3.46;83.20;92945.09;5032043;28;19913;-38
2023/03/16 09:26:29;;;;;;;;;;;;;;;3.35;84.50;92940.53;5031475;28;20305;-38
2023/03/16 09:28:54;;;;;;;;;;;;;;;3.06;85.02;92941.34;5031892;28;19913;-38
2023/03/16 09:31:19;;;;;;;;;;;;;;;3.20;84.74;92939.47;5031381;28;20258;-38
2023/03/16 09:33:45;;;;;;;;;;;;;;;3.30;84.45;92946.03;5040127;28;20184;-38
2023/03/16 09:36:12;;;;;;;;;;;;;;;3.41;84.03;92943.19;5051363;28;20007;-38
2023/03/16 09:38:38;;;;;;;;;;;;;;;3.49;82.99;92950.25;5051129;28;19951;-38
2023/03/16 09:41:07;;;;;;;;;;;;;;;3.52;83.33;92945.78;5041480;28;19921;-38
2023/03/16 09:43:42;;;;;;;;;;;;;;;3.23;84.46;92943.91;5031473;28;20053;-38
2023/03/16 09:46:12;;;;;;;;;;;;;;;3.51;84.18;92941.59;5031178;28;19923;-38
2023/03/16 09:48:38;;;;;;;;;;;;;;;3.57;83.75;92936.78;5046591;28;19944;-38
2023/03/16 09:51:05;;;;;;;;;;;;;;;3.49;84.06;92942.06;5031514;28;20385;-38
2023/03/16 09:53:31;;;;;;;;;;;;;;;3.69;83.48;92938.84;5046445;28;20017;-38
2023/03/16 09:56:02;;;;;;;;;;;;;;;3.58;83.82;92941.72;5039629;28;19952;-38
2023/03/16 09:58:27;;;;;;;;;;;;;;;3.82;83.05;92936.19;5031357;28;19951;-38
2023/03/16 10:01:22;;;;;;;;;;;;;;;3.76;83.80;92945.72;5030869;28;20396;-38
2023/03/16 10:03:47;;;;;;;;;;;;;;;3.66;83.34;92941.88;5010931;28;20108;-38
2023/03/16 10:06:13;;;;;;;;;;;;;;;3.64;83.61;92939.66;5030318;28;19964;-38
2023/03/16 10:08:47;;;;;;;;;;;;;;;3.78;83.04;92941.22;5030657;28;19919;-38
2023/03/16 10:11:18;;;;;;;;;;;;;;;3.59;84.30;92928.81;5046156;28;20596;-38
2023/03/16 10:13:49;;;;;;;;;;;;;;;3.64;85.55;92933.44;5030764;28;20451;-38
2023/03/16 10:16:17;;;;;;;;;;;;;;;3.66;85.06;92936.44;5030791;28;19913;-38
2023/03/16 10:18:43;;;;;;;;;;;;;;;3.72;85.42;92937.09;5045835;28;19917;-38
2023/03/16 10:21:13;;;;;;;;;;;;;;;3.64;85.39;92938.91;5045937;28;19924;-38
2023/03/16 10:23:39;;;;;;;;;;;;;;;3.74;84.27;92934.56;5030476;28;19920;-38
2023/03/16 10:26:10;;;;;;;;;;;;;;;3.73;84.09;92942.00;5046150;28;19913;-38
2023/03/16 10:28:36;;;;;;;;;;;;;;;3.83;83.09;92940.38;5030332;28;19917;-39
2023/03/16 10:31:03;;;;;;;;;;;;;;;3.79;84.23;92942.66;5030120;28;19921;-38
2023/03/16 10:33:30;;;;;;;;;;;;;;;3.65;83.88;92940.41;5036631;28;19922;-38
2023/03/16 10:36:14;;;;;;;;;;;;;;;3.83;83.51;92943.09;5050471;28;19967;-38
2023/03/16 10:41:31;;;;;;;;;;;;;;;3.85;83.23;92948.06;5010536;28;19948;-38
2023/03/16 10:44:16;;;;;;;;;;;;;;;3.96;83.28;92947.19;5010585;28;20361;-38
2023/03/16 10:46:46;;;;;;;;;;;;;;;3.92;82.89;92938.56;5009038;28;19924;-38
2023/03/16 10:49:18;;;;;;;;;;;;;;;3.93;81.22;92942.75;5020236;28;20028;-38
2023/03/16 10:51:43;;;;;;;;;;;;;;;4.08;82.02;92945.75;5030029;28;19920;-39
2023/03/16 10:54:14;;;;;;;;;;;;;;;4.11;81.92;92950.94;5029971;28;19913;-38
2023/03/16 10:56:39;;;;;;;;;;;;;;;4.08;81.32;92943.03;5055667;28;19920;-38
2023/03/16 10:59:21;;;;;;;;;;;;;;;4.19;81.30;92946.34;5049836;28;19912;-38
2023/03/16 11:01:48;;;;;;;;;;;;;;;4.31;81.57;92944.91;5065262;28;19932;-38
2023/03/16 11:04:15;;;;;;;;;;;;;;;4.32;81.69;92949.13;5050057;28;19913;-38
2023/03/16 11:06:46;;;;;;;;;;;;;;;4.36;82.38;92946.81;5042673;28;19920;-38
2023/03/16 11:09:13;;;;;;;;;;;;;;;4.07;82.00;92941.56;5045054;28;19917;-38
2023/03/16 11:11:38;;;;;;;;;;;;;;;4.20;80.62;92947.06;5029974;28;20392;-38
2023/03/16 11:14:09;;;;;;;;;;;;;;;4.24;81.55;92951.00;5029589;28;19915;-39
2023/03/16 11:16:53;;;;;;;;;;;;;;;4.35;79.38;92945.31;5029492;28;20361;-38
2023/03/16 11:19:19;;;;;;;;;;;;;;;4.22;80.55;92948.00;5029407;28;20576;-38
2023/03/16 11:21:53;;;;;;;;;;;;;;;4.29;80.81;92947.41;5029594;28;19913;-39
2023/03/16 11:24:41;;;;;;;;;;;;;;;4.37;81.41;92944.81;5044598;28;19913;-39
2023/03/16 11:27:18;;;;;;;;;;;;;;;4.25;80.69;92951.69;5018222;28;19921;-38
2023/03/16 11:30:04;;;;;;;;;;;;;;;4.38;79.92;92943.56;5044944;28;19952;-38
2023/03/16 11:32:35;;;;;;;;;;;;;;;4.08;81.52;92953.94;5029035;28;19913;-38
2023/03/16 11:35:03;;;;;;;;;;;;;;;4.04;80.79;92948.78;5049369;28;20309;-38
2023/03/16 11:37:35;;;;;;;;;;;;;;;3.82;83.00;92938.91;5065405;28;19913;-38
2023/03/16 11:40:01;;;;;;;;;;;;;;;4.11;80.72;92944.72;5065584;28;19923;-39
2023/03/16 11:42:26;;;;;;;;;;;;;;;4.26;80.94;92953.94;5050154;28;20388;-38
2023/03/16 11:44:58;;;;;;;;;;;;;;;4.13;81.28;92947.66;5050005;28;19948;-38
2023/03/16 11:47:43;;;;;;;;;;;;;;;3.98;80.65;92948.13;5065199;28;20004;-38
2023/03/16 11:50:10;;;;;;;;;;;;;;;4.07;81.69;92950.47;5031326;28;19971;-38
2023/03/16 11:52:44;;;;;;;;;;;;;;;4.14;81.72;92952.59;5030144;28;19913;-38
2023/03/16 11:55:13;;;;;;;;;;;;;;;4.28;80.51;92951.41;5029982;28;19920;-38
2023/03/16 11:57:41;;;;;;;;;;;;;;;4.32;79.82;92951.84;5048308;28;19963;-38
2023/03/16 12:00:19;;;;;;;;;;;;;;;4.10;81.41;92949.44;5049529;28;19964;-38
2023/03/16 12:03:03;;;;;;;;;;;;;;;3.81;81.97;92937.44;5065445;28;20370;-38
2023/03/16 12:05:38;;;;;;;;;;;;;;;3.94;81.16;92952.41;5049770;28;19913;-38
2023/03/16 12:08:03;;;;;;;;;;;;;;;3.81;81.23;92945.63;5031919;28;19968;-38
2023/03/16 12:10:44;;;;;;;;;;;;;;;3.93;80.67;92951.69;5030014;28;19952;-38
2023/03/16 12:13:15;;;;;;;;;;;;;;;3.67;83.31;92946.81;5029851;28;19913;-38
2023/03/16 12:15:54;;;;;;;;;;;;;;;3.81;83.08;92950.38;5030052;28;20000;-38
2023/03/16 12:18:22;;;;;;;;;;;;;;;3.95;82.36;92951.91;5045038;28;19913;-38
2023/03/16 12:20:56;;;;;;;;;;;;;;;4.02;82.33;92961.47;5029779;28;20324;-39
2023/03/16 12:23:26;;;;;;;;;;;;;;;4.12;82.49;92957.09;5045336;28;20321;-38
2023/03/16 12:25:51;;;;;;;;;;;;;;;4.31;81.19;92958.56;5045265;28;19960;-38
2023/03/16 12:28:22;;;;;;;;;;;;;;;4.20;81.29;92961.44;5046167;28;20417;-38
2023/03/16 12:30:47;;;;;;;;;;;;;;;4.14;81.21;92960.06;5032997;28;19921;-38
2023/03/16 12:33:28;;;;;;;;;;;;;;;4.24;81.50;92967.38;5037969;28;20329;-38
2023/03/16 12:35:55;;;;;;;;;;;;;;;4.08;82.09;92971.06;5052523;28;19967;-38
2023/03/16 12:38:36;;;;;;;;;;;;;;;3.91;83.17;92978.03;5067925;28;19920;-38
2023/03/16 12:41:04;;;;;;;;;;;;;;;4.15;82.62;92975.94;5067938;28;19917;-38
2023/03/16 12:43:29;;;;;;;;;;;;;;;4.05;81.98;92979.59;5052599;28;19998;-38
2023/03/16 12:46:08;;;;;;;;;;;;;;;4.17;82.52;92981.63;5052597;28;19999;-38
2023/03/16 12:48:37;;;;;;;;;;;;;;;4.20;82.27;92977.84;5062851;28;20376;-38
2023/03/16 12:51:03;;;;;;;;;;;;;;;4.20;82.51;92983.31;5047645;28;19971;-38
2023/03/16 12:53:47;;;;;;;;;;;;;;;4.23;82.13;92984.28;5032298;28;19959;-38
2023/03/16 12:56:16;;;;;;;;;;;;;;;4.11;83.55;92974.78;5038959;28;19928;-38
2023/03/16 12:58:44;;;;;;;;;;;;;;;4.03;83.39;92984.81;5067497;28;19947;-38
2023/03/16 13:01:10;;;;;;;;;;;;;;;4.11;83.90;92986.44;5067146;28;19921;-38
2023/03/16 13:03:35;;;;;;;;;;;;;;;4.19;81.89;92987.31;5067694;28;20007;-38
2023/03/16 13:06:02;;;;;;;;;;;;;;;4.23;81.76;92993.22;5050529;28;20424;-38
2023/03/16 13:08:27;;;;;;;;;;;;;;;4.22;82.99;92986.25;5032019;28;19924;-38
2023/03/16 13:10:59;;;;;;;;;;;;;;;4.16;80.29;93002.00;5047515;28;19917;-38
2023/03/16 13:13:26;;;;;;;;;;;;;;;4.26;80.57;92996.91;5031902;28;19914;-38
2023/03/16 13:16:00;;;;;;;;;;;;;;;4.36;80.27;93004.19;5031839;28;19939;-38
2023/03/16 13:18:26;;;;;;;;;;;;;;;4.34;80.45;93008.72;5032019;28;19913;-38
2023/03/16 13:20:53;;;;;;;;;;;;;;;4.22;80.72;93002.66;5046719;28;20380;-38
2023/03/16 13:23:37;;;;;;;;;;;;;;;4.30;80.67;93009.00;5031711;28;19945;-38
2023/03/16 13:26:04;;;;;;;;;;;;;;;4.23;79.74;93009.59;5031395;28;19959;-38
2023/03/16 13:28:31;;;;;;;;;;;;;;;4.07;79.91;93007.84;5031516;28;20381;-38
2023/03/16 13:30:57;;;;;;;;;;;;;;;4.10;80.11;93012.28;5031520;28;19981;-38